Ana Sayfa
METAR-TAF:

METAR-TAF

Havaalanları :

Karaçi, Pakistan

Enlem: 24-54N, Boylam: 067-08E, yükseklik: 21 m

Güncel hava durumu gözlemi

Rapor saat 06:25 UTC de 16 dakika önce yapıldı.
Sakin rüzgar
Sıcaklık 28°C
Nem 25%
Basınç 1017 hPa
Görüş mesafesi: 5000 m
Toz Pusu

METAR: OPKC 240625Z 00000KT 5000 HZ NSC 28/06 Q1017 NOSIG

Saat: 11:41 (06:41 UTC)

Tahmin

Rapor saat 03:30 UTC de 3 saat ve 11 dakika önce yapıldı.
Ayın 24'si saat 06 UTC'den ayın 25'si saat 12 UTC'ye kadar geçerli Tahmin
Rüzgar batıdan 8 kt ve 18 kt'a kadar ani rüzgarlar
Görüş mesafesi: 6000 m
Ayın 24'si saat 1800 UTC'den
Rüzgar kuzeybatıdan 7 kt
Görüş mesafesi: 5000 m
3000 ft yükseklikte parçalı bulutlu
Toz Pusu
Geçici
ayın 25'si saat 01 UTC'den ayın 25'si saat 05 UTC'ye kadar
Rüzgar kuzeybatıdan 5 kt
Görüş mesafesi: 4000 m
Duman

TAF: OPKC 240330Z 2406/2512 26008G18KT 6000 NSC FM241800 31007KT 5000 HZ SCT030 TEMPO 2501/2505 32005KT 4000 FU NSC

4.000'den fazla havaalanı için hava durumu gözlemleri ve tahminleri (METAR ve TAF raporları).

Kullanılabilir istasyonlar harita üzerinde sarı ve kırmızı noktalarla gösterilir.

İstasyonun adını görmek için fareyi noktanın üzerinde gezdirin.

Sonrasında hava gözlem ve tahminlerini görmek için tıklayın.

Haritayı değiştirmek için: yaklaştırmak için siyah artı işaretli yeşil düğmeye ve uzaklaştırmak için de eksi işaretli düğmeye hızla tıklayın; bitişik haritalar için yeşil okları kullanın.


METAR-TAF: